Time;durP1;ratioP1;P1;durP2;ratioP2;P2;SDS_P1;SDS_P2;PMS_P1;PMS_P2;Temp;Humidity;BMP_temperature;BMP_pressure;BME280_temperature;BME280_humidity;BME280_pressure;Samples;Min_cycle;Max_cycle;Signal;HPM_P1;HPM_P2
2023/11/02 00:00:54;;;;;;;3.90;1.80;;;;;;;6.65;80.23;95859.47;108859;1265;22521;-78
2023/11/02 00:03:45;;;;;;;9.00;5.60;;;;;;;6.62;80.52;95856.27;108745;1271;22550;-78
2023/11/02 00:06:35;;;;;;;11.40;7.90;;;;;;;6.63;80.77;95855.90;108771;1271;25378;-78
2023/11/02 00:09:33;;;;;;;3.00;1.60;;;;;;;6.63;80.93;95854.53;108764;1271;24361;-78
2023/11/02 00:12:07;;;;;;;3.30;1.70;;;;;;;6.70;81.21;95858.96;108782;1271;22532;-78
2023/11/02 00:14:46;;;;;;;2.60;1.70;;;;;;;6.73;81.02;95856.30;108783;1271;22510;-77
2023/11/02 00:17:56;;;;;;;3.20;1.70;;;;;;;6.75;81.14;95850.29;108782;1264;22533;-78
2023/11/02 00:20:48;;;;;;;2.90;1.40;;;;;;;6.70;80.92;95854.48;108787;1271;22520;-78
2023/11/02 00:23:34;;;;;;;1.50;1.00;;;;;;;6.62;80.97;95854.05;108784;1271;25400;-78
2023/11/02 00:26:05;;;;;;;2.50;1.30;;;;;;;6.57;81.22;95850.81;108799;1271;22990;-77
2023/11/02 00:28:37;;;;;;;3.30;1.50;;;;;;;6.52;81.08;95849.99;108784;1265;25413;-78
2023/11/02 00:31:08;;;;;;;1.70;1.40;;;;;;;6.48;81.13;95848.54;108790;1271;22524;-78
2023/11/02 00:33:39;;;;;;;2.50;1.00;;;;;;;6.47;81.18;95843.90;108767;1271;22520;-78
2023/11/02 00:36:11;;;;;;;2.00;1.10;;;;;;;6.46;81.34;95840.31;108804;1271;22524;-78
2023/11/02 00:38:43;;;;;;;1.40;1.30;;;;;;;6.47;81.32;95836.21;108773;1265;25272;-78
2023/11/02 00:41:15;;;;;;;4.10;1.30;;;;;;;6.42;81.36;95834.19;108789;1265;22510;-78
2023/11/02 00:43:45;;;;;;;1.60;1.10;;;;;;;6.43;81.43;95835.44;108833;1271;22942;-78
2023/11/02 00:46:17;;;;;;;2.30;1.40;;;;;;;6.49;81.52;95835.95;108740;1271;22517;-78
2023/11/02 00:48:49;;;;;;;1.50;1.10;;;;;;;6.54;81.45;95828.55;108787;1271;22517;-78
2023/11/02 00:51:24;;;;;;;1.40;0.90;;;;;;;6.53;81.54;95822.60;108834;1271;24395;-78
2023/11/02 00:53:57;;;;;;;1.40;0.90;;;;;;;6.53;81.63;95815.45;108821;1271;22519;-78
2023/11/02 00:56:33;;;;;;;2.10;0.90;;;;;;;6.54;81.66;95809.74;108758;1263;22528;-78
2023/11/02 00:59:07;;;;;;;1.60;0.90;;;;;;;6.46;81.33;95804.05;108808;1268;22555;-78
2023/11/02 01:01:38;;;;;;;3.90;1.30;;;;;;;6.39;81.43;95803.29;108795;1271;22532;-78
2023/11/02 01:04:46;;;;;;;2.20;1.20;;;;;;;6.31;81.37;95797.33;108817;1264;23037;-78
2023/11/02 01:07:18;;;;;;;2.60;0.90;;;;;;;6.12;81.17;95790.46;108800;1271;24285;-78
2023/11/02 01:09:59;;;;;;;2.50;1.10;;;;;;;6.10;81.60;95791.95;108804;1271;22547;-78
2023/11/02 01:12:35;;;;;;;1.90;1.10;;;;;;;6.06;81.88;95797.91;108742;1271;22585;-78
2023/11/02 01:15:11;;;;;;;2.80;1.10;;;;;;;5.95;81.83;95794.42;108750;1265;22543;-78
2023/11/02 01:17:43;;;;;;;4.10;1.20;;;;;;;5.93;82.18;95798.86;108795;1265;25304;-78
2023/11/02 01:20:36;;;;;;;2.50;1.10;;;;;;;5.91;82.13;95792.33;108792;1265;26441;-78
2023/11/02 01:23:09;;;;;;;2.70;1.40;;;;;;;5.88;82.15;95789.05;108812;1271;22564;-78
2023/11/02 01:25:44;;;;;;;3.10;1.40;;;;;;;5.88;82.35;95781.25;108785;1271;22546;-78
2023/11/02 01:28:19;;;;;;;1.80;1.10;;;;;;;5.83;82.24;95774.02;108787;1265;22517;-78
2023/11/02 01:31:20;;;;;;;2.30;1.00;;;;;;;5.90;82.76;95778.02;108771;1271;22531;-78
2023/11/02 01:33:58;;;;;;;1.30;0.60;;;;;;;5.99;82.86;95775.14;108783;1271;22515;-78
2023/11/02 01:36:33;;;;;;;1.50;1.10;;;;;;;6.02;82.50;95771.45;108845;1271;22602;-78
2023/11/02 01:39:29;;;;;;;3.80;1.00;;;;;;;6.07;82.97;95774.06;108826;1271;25263;-78
2023/11/02 01:42:11;;;;;;;3.00;0.90;;;;;;;6.15;82.73;95771.87;108787;1271;22541;-78
2023/11/02 01:44:47;;;;;;;1.40;0.90;;;;;;;6.13;82.67;95768.20;108794;1265;22519;-78
2023/11/02 01:47:32;;;;;;;1.70;0.80;;;;;;;6.14;82.76;95765.14;108744;1268;22539;-78
2023/11/02 01:50:09;;;;;;;1.30;0.70;;;;;;;6.16;82.67;95757.02;108749;1265;24145;-78
2023/11/02 01:53:10;;;;;;;1.10;0.80;;;;;;;6.18;82.92;95759.48;108754;1264;22540;-78
2023/11/02 01:55:57;;;;;;;1.40;0.80;;;;;;;6.12;82.46;95752.58;108692;1271;22517;-78
2023/11/02 01:58:45;;;;;;;2.00;0.80;;;;;;;6.04;82.49;95755.55;108730;1268;22581;-78
2023/11/02 02:01:23;;;;;;;2.30;1.00;;;;;;;6.02;82.54;95747.19;108798;1265;22512;-78
2023/11/02 02:04:03;;;;;;;2.00;1.00;;;;;;;5.99;82.60;95743.58;108814;1265;22531;-78
2023/11/02 02:06:44;;;;;;;2.20;0.80;;;;;;;5.99;82.71;95741.52;108796;1264;22517;-78
2023/11/02 02:09:25;;;;;;;1.90;0.90;;;;;;;5.98;82.76;95742.59;108805;1269;22528;-78
2023/11/02 02:12:06;;;;;;;2.30;0.70;;;;;;;5.91;82.62;95742.65;108746;1271;22526;-78
2023/11/02 02:14:54;;;;;;;1.60;0.90;;;;;;;5.90;82.88;95740.61;108750;1271;23396;-78
2023/11/02 02:17:36;;;;;;;0.80;0.70;;;;;;;5.93;82.87;95738.14;108811;1271;22536;-78
2023/11/02 02:20:13;;;;;;;0.90;0.80;;;;;;;5.90;82.82;95735.45;108780;1271;22520;-78
2023/11/02 02:22:49;;;;;;;1.50;0.70;;;;;;;5.85;82.64;95737.60;108777;1271;22522;-78
2023/11/02 02:25:30;;;;;;;1.10;0.60;;;;;;;5.80;82.71;95734.17;108737;1270;25294;-78
2023/11/02 02:28:26;;;;;;;1.90;1.00;;;;;;;5.77;82.79;95727.23;108749;1271;22517;-78
2023/11/02 02:31:17;;;;;;;2.00;0.90;;;;;;;5.74;82.87;95717.82;108833;1271;22528;-78
2023/11/02 02:34:08;;;;;;;0.80;0.70;;;;;;;5.63;82.46;95716.65;108792;1271;22517;-78
2023/11/02 02:36:48;;;;;;;0.70;0.60;;;;;;;5.54;82.74;95720.05;108759;1265;22540;-78
2023/11/02 02:39:23;;;;;;;2.60;0.80;;;;;;;5.52;83.09;95726.15;108763;1265;22534;-78
2023/11/02 02:41:57;;;;;;;2.20;0.80;;;;;;;5.54;83.38;95722.52;108801;1271;22520;-78
2023/11/02 02:44:32;;;;;;;1.40;0.70;;;;;;;5.60;83.68;95717.29;108751;1271;25364;-78
2023/11/02 02:47:04;;;;;;;1.00;0.70;;;;;;;5.70;83.86;95719.20;108700;1271;22636;-78
2023/11/02 02:49:39;;;;;;;1.40;0.80;;;;;;;5.83;83.82;95713.63;108777;1268;24417;-78
2023/11/02 02:52:19;;;;;;;1.40;0.60;;;;;;;5.86;83.89;95709.40;108803;1271;22614;-78
2023/11/02 02:54:53;;;;;;;2.90;1.10;;;;;;;5.86;83.77;95710.77;108788;1271;22520;-78
2023/11/02 02:57:28;;;;;;;1.70;1.00;;;;;;;5.85;83.59;95707.46;108799;1271;26921;-78
2023/11/02 03:00:02;;;;;;;1.80;0.80;;;;;;;5.90;83.80;95699.77;108779;1266;22702;-78
2023/11/02 03:02:35;;;;;;;1.40;0.80;;;;;;;5.91;83.71;95702.20;108765;1271;22560;-78
2023/11/02 03:05:11;;;;;;;1.70;0.80;;;;;;;5.89;83.67;95692.77;108790;1268;22955;-77
2023/11/02 03:07:47;;;;;;;3.00;1.20;;;;;;;5.84;83.36;95688.48;108733;1257;22521;-78
2023/11/02 03:10:20;;;;;;;1.70;1.10;;;;;;;5.76;83.50;95690.61;108775;1271;22545;-78
2023/11/02 03:12:55;;;;;;;3.00;1.10;;;;;;;5.76;83.78;95688.88;108720;1250;22552;-78
2023/11/02 03:15:29;;;;;;;1.90;1.10;;;;;;;5.79;83.74;95679.41;108703;1268;22521;-78
2023/11/02 03:18:09;;;;;;;2.80;1.20;;;;;;;5.82;83.84;95675.98;108759;1271;22589;-78
2023/11/02 03:20:41;;;;;;;1.60;0.90;;;;;;;5.81;83.61;95678.52;108736;1265;22582;-78
2023/11/02 03:23:23;;;;;;;2.90;1.00;;;;;;;5.70;83.68;95679.17;108787;1271;22508;-78
2023/11/02 03:26:03;;;;;;;1.30;0.70;;;;;;;5.62;83.39;95674.16;108733;1271;22551;-78
2023/11/02 03:28:47;;;;;;;1.30;0.80;;;;;;;5.54;83.58;95671.95;108711;1271;22535;-78
2023/11/02 03:31:29;;;;;;;2.20;1.00;;;;;;;5.51;83.85;95667.17;108770;1271;22514;-78
2023/11/02 03:34:10;;;;;;;0.90;0.60;;;;;;;5.51;83.92;95663.91;108740;1264;22548;-78
2023/11/02 03:37:02;;;;;;;3.00;1.00;;;;;;;5.44;83.90;95663.56;108660;1266;22511;-78
2023/11/02 03:39:55;;;;;;;1.20;0.80;;;;;;;5.46;84.30;95659.13;108756;1271;22523;-78
2023/11/02 03:42:34;;;;;;;2.40;0.80;;;;;;;5.46;83.88;95648.61;108736;1266;22585;-78
2023/11/02 03:45:17;;;;;;;1.70;0.90;;;;;;;5.28;83.80;95648.30;108729;1271;22521;-78
2023/11/02 03:48:01;;;;;;;1.40;0.60;;;;;;;5.24;84.05;95640.52;108746;1271;25520;-78
2023/11/02 03:50:49;;;;;;;1.70;1.00;;;;;;;5.19;84.10;95633.47;108750;1271;22551;-78
2023/11/02 03:53:35;;;;;;;2.20;1.10;;;;;;;5.14;84.31;95635.27;108753;1271;23309;-78
2023/11/02 03:56:16;;;;;;;1.10;0.70;;;;;;;5.03;84.18;95631.30;108751;1271;22520;-78
2023/11/02 03:59:01;;;;;;;1.90;0.70;;;;;;;4.90;84.31;95628.02;108751;1268;22517;-78
2023/11/02 04:01:46;;;;;;;1.30;0.90;;;;;;;4.86;84.85;95616.33;108719;1268;22549;-78
2023/11/02 04:04:24;;;;;;;2.60;0.80;;;;;;;4.89;85.12;95612.79;108760;1271;24304;-78
2023/11/02 04:07:03;;;;;;;1.60;0.90;;;;;;;4.92;85.31;95613.27;108704;1271;22529;-78
2023/11/02 04:09:41;;;;;;;1.70;0.70;;;;;;;4.94;85.49;95609.55;108800;1271;22517;-78
2023/11/02 04:12:25;;;;;;;1.30;0.80;;;;;;;4.94;85.35;95612.07;108749;1271;22519;-78
2023/11/02 04:14:59;;;;;;;1.00;0.70;;;;;;;4.94;85.59;95617.98;108770;1271;22518;-78
2023/11/02 04:17:31;;;;;;;1.70;0.90;;;;;;;4.90;85.33;95612.78;108716;1271;22544;-78
2023/11/02 04:20:03;;;;;;;2.20;1.00;;;;;;;4.85;85.39;95613.91;108694;1265;22528;-78
2023/11/02 04:22:34;;;;;;;1.50;0.80;;;;;;;4.80;85.26;95610.73;108714;1271;22620;-78
2023/11/02 04:25:06;;;;;;;1.50;0.90;;;;;;;4.72;85.67;95607.89;108735;1265;22517;-78
2023/11/02 04:27:37;;;;;;;1.50;0.70;;;;;;;4.75;86.05;95612.13;108706;1271;24383;-78
2023/11/02 04:30:10;;;;;;;0.90;0.60;;;;;;;4.77;85.88;95616.17;108726;1271;24017;-78
2023/11/02 04:32:41;;;;;;;1.80;0.90;;;;;;;4.71;85.67;95615.19;108842;1271;22593;-78
2023/11/02 04:35:13;;;;;;;2.90;0.70;;;;;;;4.60;85.54;95609.16;108745;1265;22544;-78
2023/11/02 04:37:44;;;;;;;0.60;0.50;;;;;;;4.46;85.62;95608.39;108687;1271;22627;-78
2023/11/02 04:40:15;;;;;;;1.30;0.80;;;;;;;4.38;85.76;95605.73;108756;1271;22527;-78
2023/11/02 04:42:46;;;;;;;0.80;0.70;;;;;;;4.41;86.49;95603.73;108744;1271;22526;-78
2023/11/02 04:45:17;;;;;;;1.60;1.10;;;;;;;4.55;87.09;95599.73;108739;1271;24252;-78
2023/11/02 04:47:48;;;;;;;1.00;0.70;;;;;;;4.70;87.15;95600.55;108732;1271;22533;-78
2023/11/02 04:50:20;;;;;;;2.30;1.60;;;;;;;4.71;86.88;95596.18;108747;1268;22580;-78
2023/11/02 04:52:52;;;;;;;1.60;0.80;;;;;;;4.73;86.98;95596.55;108751;1268;24245;-78
2023/11/02 04:55:23;;;;;;;1.20;0.90;;;;;;;4.74;86.97;95601.59;108716;1265;24197;-78
2023/11/02 04:57:53;;;;;;;1.10;0.80;;;;;;;4.68;86.88;95602.28;108750;1271;22581;-78
2023/11/02 05:00:24;;;;;;;2.00;0.80;;;;;;;4.66;87.16;95596.41;108763;1271;22533;-78
2023/11/02 05:02:55;;;;;;;2.80;0.80;;;;;;;4.67;87.39;95584.60;108722;1271;22650;-78
2023/11/02 05:05:26;;;;;;;1.60;1.10;;;;;;;4.67;87.17;95586.95;108734;1250;24196;-78
2023/11/02 05:07:57;;;;;;;2.10;1.00;;;;;;;4.66;87.28;95590.22;108757;1271;22600;-78
2023/11/02 05:10:28;;;;;;;1.60;1.10;;;;;;;4.69;87.55;95590.36;108802;1265;22579;-78
2023/11/02 05:12:59;;;;;;;1.70;1.00;;;;;;;4.75;87.85;95586.41;108729;1271;22530;-78
2023/11/02 05:15:30;;;;;;;2.40;1.10;;;;;;;4.96;88.26;95575.96;108677;1271;22538;-78
2023/11/02 05:18:00;;;;;;;2.50;1.10;;;;;;;5.11;88.11;95571.45;108762;1271;22569;-79
2023/11/02 05:20:31;;;;;;;1.10;0.80;;;;;;;5.22;88.18;95564.36;108716;1271;25471;-78
2023/11/02 05:23:02;;;;;;;1.60;0.80;;;;;;;5.39;88.18;95559.34;108773;1271;25355;-78
2023/11/02 05:25:33;;;;;;;1.40;1.00;;;;;;;5.58;88.64;95554.20;108714;1268;22522;-78
2023/11/02 05:28:04;;;;;;;2.10;0.80;;;;;;;5.74;88.36;95552.61;108711;1271;22516;-78
2023/11/02 05:30:39;;;;;;;1.80;1.10;;;;;;;5.80;88.26;95547.29;108720;1271;22628;-78
2023/11/02 05:33:10;;;;;;;2.00;1.40;;;;;;;5.78;87.79;95543.04;108793;1271;22593;-78
2023/11/02 05:35:41;;;;;;;1.60;1.10;;;;;;;5.72;87.34;95545.05;108693;1271;24362;-78
2023/11/02 05:38:12;;;;;;;3.10;1.30;;;;;;;5.60;87.08;95533.14;108772;1271;22517;-78
2023/11/02 05:40:43;;;;;;;2.50;1.00;;;;;;;5.50;87.22;95533.95;108729;1271;22533;-78
2023/11/02 05:43:14;;;;;;;0.90;0.70;;;;;;;5.46;87.32;95535.80;108734;1271;24276;-78
2023/11/02 05:45:45;;;;;;;1.50;0.80;;;;;;;5.42;87.47;95533.41;108711;1271;22603;-78
2023/11/02 05:48:16;;;;;;;0.60;0.50;;;;;;;5.32;87.26;95539.30;108760;1271;24224;-79
2023/11/02 05:50:47;;;;;;;1.20;1.00;;;;;;;5.32;87.57;95535.71;108740;1268;25478;-78
2023/11/02 05:53:18;;;;;;;2.50;1.00;;;;;;;5.40;87.95;95536.48;108742;1271;22562;-78
2023/11/02 05:55:49;;;;;;;0.80;0.60;;;;;;;5.63;88.69;95528.77;108670;1271;22531;-78
2023/11/02 05:58:20;;;;;;;2.10;0.90;;;;;;;5.88;88.89;95520.14;108737;1271;22529;-78
2023/11/02 06:00:51;;;;;;;1.50;0.70;;;;;;;6.06;88.67;95522.75;108727;1270;22535;-78
2023/11/02 06:03:24;;;;;;;1.50;0.70;;;;;;;6.15;88.47;95527.14;108718;1271;22586;-78
2023/11/02 06:05:54;;;;;;;2.80;0.80;;;;;;;6.19;88.15;95531.22;108684;1271;22514;-78
2023/11/02 06:08:25;;;;;;;1.30;0.90;;;;;;;6.14;87.91;95517.79;108703;1271;22525;-78
2023/11/02 06:10:56;;;;;;;1.30;0.70;;;;;;;6.18;88.08;95522.65;108750;1271;22938;-79
2023/11/02 06:13:27;;;;;;;7.30;3.70;;;;;;;6.23;87.97;95527.29;108715;1265;22521;-78
2023/11/02 06:15:58;;;;;;;6.20;2.80;;;;;;;6.08;87.44;95525.36;108696;1271;30791;-78
2023/11/02 06:18:30;;;;;;;3.90;2.60;;;;;;;6.01;87.92;95527.42;108543;1264;251780;-78
2023/11/02 06:21:02;;;;;;;5.20;2.50;;;;;;;6.06;88.50;95514.17;108742;1265;22532;-78
2023/11/02 06:23:33;;;;;;;5.00;2.80;;;;;;;6.11;88.81;95518.09;108712;1268;24356;-78
2023/11/02 06:26:05;;;;;;;4.10;2.30;;;;;;;6.18;88.94;95515.91;108703;1271;23096;-78
2023/11/02 06:28:36;;;;;;;3.00;1.70;;;;;;;6.28;88.92;95520.09;108757;1271;22527;-78
2023/11/02 06:31:08;;;;;;;3.20;1.60;;;;;;;6.36;88.75;95514.80;108776;1271;22652;-78
2023/11/02 06:33:39;;;;;;;2.30;1.30;;;;;;;6.44;88.82;95513.61;108715;1271;22520;-79
2023/11/02 06:36:11;;;;;;;2.40;1.40;;;;;;;6.51;88.93;95506.87;108698;1268;22521;-78
2023/11/02 06:38:43;;;;;;;5.50;2.00;;;;;;;6.57;89.05;95515.16;108748;1271;22545;-79
2023/11/02 06:41:14;;;;;;;3.10;1.90;;;;;;;6.64;89.09;95506.48;108757;1268;22638;-79
2023/11/02 06:43:45;;;;;;;3.80;1.70;;;;;;;6.68;89.06;95510.17;108734;1268;22525;-78
2023/11/02 06:46:16;;;;;;;3.00;1.90;;;;;;;6.65;89.00;95504.05;108740;1271;22990;-79
2023/11/02 06:48:47;;;;;;;3.20;2.00;;;;;;;6.67;89.47;95499.64;108733;1271;22539;-79
2023/11/02 06:51:18;;;;;;;7.40;3.90;;;;;;;6.77;89.62;95505.91;108764;1265;22532;-79
2023/11/02 06:53:49;;;;;;;11.00;6.40;;;;;;;6.81;89.79;95502.85;108742;1267;22520;-78
2023/11/02 06:56:25;;;;;;;11.00;6.10;;;;;;;6.78;89.66;95495.52;108718;1268;22477;-78
2023/11/02 06:58:56;;;;;;;8.90;5.70;;;;;;;6.79;90.29;95492.81;108760;1271;25369;-79
2023/11/02 07:01:27;;;;;;;4.70;2.90;;;;;;;6.91;90.69;95490.58;108735;1271;25486;-79
2023/11/02 07:03:58;;;;;;;5.70;3.40;;;;;;;7.07;90.75;95489.85;108703;1271;22541;-79
2023/11/02 07:06:29;;;;;;;5.50;3.50;;;;;;;7.22;90.93;95491.02;108670;1271;23039;-79
2023/11/02 07:09:00;;;;;;;4.20;2.50;;;;;;;7.34;91.06;95486.54;108773;1271;24319;-79
2023/11/02 07:11:33;;;;;;;4.80;1.90;;;;;;;7.49;91.16;95481.08;108753;1271;22521;-79
2023/11/02 07:14:05;;;;;;;3.00;1.60;;;;;;;7.63;90.97;95474.79;108756;1265;22513;-78
2023/11/02 07:16:37;;;;;;;4.40;1.50;;;;;;;7.81;90.89;95468.92;108614;1271;22581;-79
2023/11/02 07:19:08;;;;;;;1.80;1.40;;;;;;;7.98;90.57;95466.64;108646;1263;22516;-79
2023/11/02 07:21:39;;;;;;;1.90;1.30;;;;;;;8.21;90.84;95465.78;108664;1273;22798;-78
2023/11/02 07:24:10;;;;;;;1.50;1.20;;;;;;;8.47;90.75;95463.56;108642;1274;22540;-77
2023/11/02 07:26:41;;;;;;;3.10;1.10;;;;;;;8.80;90.47;95465.10;108627;1273;22535;-78
2023/11/02 07:29:12;;;;;;;4.10;1.20;;;;;;;9.21;90.67;95465.91;108624;1273;22519;-78
2023/11/02 07:31:44;;;;;;;6.10;1.70;;;;;;;9.65;90.84;95452.54;108644;1273;22531;-78
2023/11/02 07:34:15;;;;;;;4.90;1.60;;;;;;;10.18;90.28;95447.04;108626;1273;22548;-78
2023/11/02 07:36:46;;;;;;;2.60;1.40;;;;;;;10.69;89.28;95437.88;108632;1261;25287;-78
2023/11/02 07:39:17;;;;;;;4.80;2.00;;;;;;;11.15;88.46;95434.60;108670;1268;26796;-78
2023/11/02 07:41:48;;;;;;;2.20;1.10;;;;;;;11.47;87.67;95438.06;108603;1273;22533;-78
2023/11/02 07:44:19;;;;;;;2.70;1.10;;;;;;;11.57;86.51;95439.86;108582;1273;23357;-78
2023/11/02 07:46:51;;;;;;;1.80;1.00;;;;;;;11.53;85.55;95438.31;108622;1270;23147;-78
2023/11/02 07:49:22;;;;;;;1.50;1.30;;;;;;;11.47;84.95;95427.23;108616;1271;24249;-78
2023/11/02 07:51:53;;;;;;;2.00;1.00;;;;;;;11.42;84.48;95429.05;108665;1271;22548;-78
2023/11/02 07:54:24;;;;;;;5.40;1.00;;;;;;;11.37;84.25;95428.13;108606;1269;22526;-78
2023/11/02 07:56:55;;;;;;;2.10;1.90;;;;;;;11.39;84.15;95426.01;108607;1271;24202;-78
2023/11/02 07:59:26;;;;;;;2.50;1.40;;;;;;;11.37;83.90;95419.85;108639;1267;22569;-78
2023/11/02 08:01:57;;;;;;;2.80;1.80;;;;;;;11.35;83.76;95419.63;108603;1273;22517;-78
2023/11/02 08:04:29;;;;;;;2.70;1.30;;;;;;;11.39;83.67;95417.08;108609;1270;22521;-78
2023/11/02 08:07:00;;;;;;;5.20;1.50;;;;;;;11.40;83.25;95420.52;108597;1273;24150;-78
2023/11/02 08:09:32;;;;;;;2.50;1.20;;;;;;;11.36;82.99;95412.46;108630;1273;22538;-78
2023/11/02 08:12:04;;;;;;;3.30;1.20;;;;;;;11.38;82.93;95406.34;108624;1273;22577;-78
2023/11/02 08:14:35;;;;;;;2.30;1.00;;;;;;;11.41;82.86;95410.50;108628;1271;24264;-78
2023/11/02 08:17:06;;;;;;;3.20;1.50;;;;;;;11.42;83.19;95406.34;108666;1271;25287;-78
2023/11/02 08:19:38;;;;;;;3.80;1.50;;;;;;;11.39;83.71;95405.87;108727;1271;22523;-78
2023/11/02 08:22:09;;;;;;;5.80;1.60;;;;;;;11.84;84.07;95405.16;108725;1271;24237;-78
2023/11/02 08:24:41;;;;;;;3.50;1.60;;;;;;;12.47;83.93;95401.54;108704;1269;25337;-78
2023/11/02 08:27:12;;;;;;;6.00;2.80;;;;;;;12.78;83.48;95398.29;108658;1269;24039;-78
2023/11/02 08:29:43;;;;;;;5.20;1.90;;;;;;;12.98;82.96;95394.55;108771;1271;22617;-78
2023/11/02 08:32:14;;;;;;;3.30;1.50;;;;;;;13.05;82.66;95388.89;108743;1271;22518;-79
2023/11/02 08:34:45;;;;;;;3.90;2.20;;;;;;;13.05;81.79;95391.77;108697;1271;22534;-78
2023/11/02 08:37:17;;;;;;;3.40;2.20;;;;;;;13.05;81.66;95392.98;108699;1271;22518;-78
2023/11/02 08:39:48;;;;;;;5.60;2.20;;;;;;;13.03;81.41;95386.62;108751;1271;22517;-78
2023/11/02 08:42:19;;;;;;;4.00;2.10;;;;;;;13.03;81.10;95381.80;108716;1271;22517;-78
2023/11/02 08:44:50;;;;;;;4.70;2.20;;;;;;;13.03;80.75;95379.08;108692;1268;22524;-78
2023/11/02 08:47:21;;;;;;;3.40;1.80;;;;;;;13.03;80.33;95380.30;108737;1271;25739;-78
2023/11/02 08:49:53;;;;;;;2.90;1.70;;;;;;;12.98;79.47;95370.48;108732;1271;25335;-78
2023/11/02 08:52:24;;;;;;;3.60;1.30;;;;;;;12.99;79.06;95363.72;108698;1253;24206;-78
2023/11/02 08:54:56;;;;;;;2.70;1.50;;;;;;;13.06;79.16;95364.22;108741;1271;22593;-78
2023/11/02 08:57:27;;;;;;;2.50;0.80;;;;;;;13.14;78.61;95359.48;108811;1271;23334;-79
2023/11/02 08:59:58;;;;;;;3.80;1.00;;;;;;;13.16;78.20;95354.48;108730;1271;24358;-78
2023/11/02 09:02:31;;;;;;;2.80;1.10;;;;;;;13.22;78.72;95356.30;108732;1268;22723;-78
2023/11/02 09:05:03;;;;;;;2.30;0.90;;;;;;;13.35;78.26;95347.97;108720;1271;23828;-77
2023/11/02 09:07:34;;;;;;;5.40;1.30;;;;;;;13.44;77.59;95340.75;108733;1271;22535;-78
2023/11/02 09:10:08;;;;;;;2.90;1.30;;;;;;;13.56;77.55;95351.61;108680;1271;23242;-78
2023/11/02 09:12:40;;;;;;;5.30;1.50;;;;;;;13.63;77.03;95342.76;108786;1271;22515;-78
2023/11/02 09:15:12;;;;;;;3.40;1.10;;;;;;;13.69;76.96;95336.20;108699;1264;22627;-78
2023/11/02 09:17:44;;;;;;;2.40;0.80;;;;;;;13.82;76.91;95335.82;108727;1271;23039;-78
2023/11/02 09:20:15;;;;;;;2.10;1.20;;;;;;;13.98;76.62;95334.27;108772;1264;25278;-78
2023/11/02 09:22:46;;;;;;;1.80;1.10;;;;;;;14.06;75.99;95328.23;108706;1271;22650;-78
2023/11/02 09:25:18;;;;;;;2.00;1.00;;;;;;;14.14;75.40;95332.85;108697;1266;22529;-78
2023/11/02 09:27:51;;;;;;;2.50;1.00;;;;;;;14.03;74.56;95331.88;108750;1271;22531;-78
2023/11/02 09:30:23;;;;;;;1.80;1.00;;;;;;;13.98;74.31;95336.80;108788;1268;22522;-78
2023/11/02 09:32:54;;;;;;;1.50;1.00;;;;;;;13.94;74.03;95325.88;108782;1271;22517;-78
2023/11/02 09:35:25;;;;;;;4.30;1.40;;;;;;;13.93;73.09;95323.93;108748;1271;24914;-78
2023/11/02 09:37:56;;;;;;;2.80;1.10;;;;;;;14.00;73.13;95316.40;108755;1271;23869;-78
2023/11/02 09:40:28;;;;;;;2.30;1.00;;;;;;;14.21;73.40;95317.00;108710;1271;25394;-78
2023/11/02 09:43:02;;;;;;;1.70;0.90;;;;;;;14.42;73.28;95302.89;108720;1265;25407;-78
2023/11/02 09:45:36;;;;;;;1.80;1.20;;;;;;;14.49;70.87;95301.90;108731;1269;23693;-78
2023/11/02 09:48:08;;;;;;;2.80;1.10;;;;;;;14.43;69.10;95302.55;108773;1271;22508;-78
2023/11/02 09:50:40;;;;;;;2.90;1.10;;;;;;;14.43;68.20;95292.31;108725;1271;25432;-79
2023/11/02 09:53:12;;;;;;;2.20;1.00;;;;;;;14.40;66.48;95293.75;108745;1271;22533;-79
2023/11/02 09:55:43;;;;;;;2.00;0.60;;;;;;;14.45;66.22;95290.49;108665;1271;22546;-79
2023/11/02 09:58:17;;;;;;;1.10;0.80;;;;;;;14.48;65.47;95292.56;108723;1271;22479;-78
2023/11/02 10:00:49;;;;;;;0.90;0.80;;;;;;;14.57;64.88;95293.67;108763;1269;25338;-78
2023/11/02 10:03:20;;;;;;;1.00;0.80;;;;;;;14.60;64.60;95290.54;108743;1271;22669;-79
2023/11/02 10:05:53;;;;;;;2.70;1.20;;;;;;;14.70;65.08;95288.98;108658;1271;22521;-78
2023/11/02 10:08:25;;;;;;;2.30;0.80;;;;;;;14.84;65.35;95291.06;108747;1271;24382;-78
2023/11/02 10:11:14;;;;;;;2.40;0.80;;;;;;;15.07;66.78;95282.77;108750;1271;22542;-78
2023/11/02 10:13:49;;;;;;;1.90;0.60;;;;;;;15.28;66.29;95281.86;108721;1271;25285;-78
2023/11/02 10:16:25;;;;;;;1.40;0.70;;;;;;;15.46;66.80;95277.13;108689;1271;22754;-78
2023/11/02 10:18:56;;;;;;;1.60;0.80;;;;;;;15.64;66.62;95278.33;108749;1272;24269;-79
2023/11/02 10:21:27;;;;;;;1.70;0.80;;;;;;;15.71;65.55;95268.42;108747;1271;22535;-78
2023/11/02 10:24:01;;;;;;;0.80;0.50;;;;;;;15.76;65.30;95268.30;108732;1269;22599;-78
2023/11/02 10:26:34;;;;;;;3.80;0.70;;;;;;;15.86;64.89;95271.39;108700;1268;22543;-78
2023/11/02 10:29:08;;;;;;;2.20;0.90;;;;;;;15.98;64.75;95265.21;108720;1268;22643;-78
2023/11/02 10:31:44;;;;;;;1.80;0.70;;;;;;;16.11;64.66;95254.59;108772;1271;25323;-78
2023/11/02 10:34:16;;;;;;;1.40;0.40;;;;;;;16.22;64.32;95252.19;108737;1268;22554;-78
2023/11/02 10:36:49;;;;;;;3.40;0.80;;;;;;;16.24;63.76;95241.00;108682;1266;23682;-78
2023/11/02 10:39:22;;;;;;;1.40;0.80;;;;;;;16.24;63.02;95229.45;108715;1271;22541;-78
2023/11/02 10:41:59;;;;;;;1.30;0.60;;;;;;;16.26;62.47;95213.82;108712;1271;22561;-78
2023/11/02 10:44:31;;;;;;;2.10;0.60;;;;;;;16.32;62.71;95216.20;108829;1268;22554;-79
2023/11/02 10:47:05;;;;;;;1.10;0.60;;;;;;;16.36;61.42;95212.14;108800;1269;22638;-79
2023/11/02 10:49:42;;;;;;;1.40;0.60;;;;;;;16.36;59.23;95209.47;108848;1268;22532;-79
2023/11/02 10:52:21;;;;;;;0.90;0.50;;;;;;;16.34;58.43;95203.48;108854;1268;22545;-79
2023/11/02 10:54:58;;;;;;;1.10;0.50;;;;;;;16.37;57.97;95210.41;108775;1271;22555;-79
2023/11/02 10:57:32;;;;;;;1.50;0.50;;;;;;;16.41;57.84;95197.95;108857;1271;22521;-79
2023/11/02 11:00:05;;;;;;;1.80;0.50;;;;;;;16.49;57.01;95202.41;108801;1271;22530;-80
2023/11/02 11:02:38;;;;;;;1.30;0.60;;;;;;;16.43;54.74;95201.59;108915;1271;22539;-80
2023/11/02 11:05:11;;;;;;;1.60;0.50;;;;;;;16.36;53.42;95192.20;108857;1271;22548;-79
2023/11/02 11:07:44;;;;;;;1.10;0.50;;;;;;;16.39;53.93;95187.83;108844;1271;22538;-80
2023/11/02 11:10:16;;;;;;;1.70;0.50;;;;;;;16.48;54.39;95197.35;108825;1271;22559;-80
2023/11/02 11:12:50;;;;;;;0.50;0.40;;;;;;;16.54;54.24;95190.82;108773;1270;24238;-80
2023/11/02 11:15:23;;;;;;;1.90;0.70;;;;;;;16.60;54.35;95186.89;108693;1271;22751;-79
2023/11/02 11:17:55;;;;;;;2.30;0.60;;;;;;;16.52;53.88;95191.23;108759;1271;25357;-80
2023/11/02 11:20:27;;;;;;;1.90;0.50;;;;;;;16.43;55.07;95187.76;108690;1271;25422;-80
2023/11/02 11:22:58;;;;;;;0.90;0.60;;;;;;;16.47;55.38;95190.37;108717;1271;23489;-80
2023/11/02 11:25:29;;;;;;;0.70;0.50;;;;;;;16.55;55.58;95192.83;108677;1271;22568;-79
2023/11/02 11:28:00;;;;;;;2.50;0.90;;;;;;;16.61;55.26;95190.75;108744;1271;22657;-80
2023/11/02 11:30:38;;;;;;;1.10;0.80;;;;;;;16.67;55.22;95186.36;108717;1272;22538;-80
2023/11/02 11:33:36;;;;;;;2.60;0.90;;;;;;;16.57;53.81;95186.14;108743;1269;22511;-80
2023/11/02 11:36:28;;;;;;;1.40;0.80;;;;;;;16.37;54.33;95173.88;108670;1271;22557;-80
2023/11/02 11:39:20;;;;;;;0.90;0.60;;;;;;;16.37;54.52;95168.15;108750;1266;22530;-80
2023/11/02 11:41:51;;;;;;;2.90;0.70;;;;;;;16.29;53.77;95158.95;108715;1271;22523;-80
2023/11/02 11:44:24;;;;;;;0.80;0.60;;;;;;;16.18;53.12;95152.09;108712;1271;25416;-81
2023/11/02 11:46:56;;;;;;;1.50;0.60;;;;;;;16.06;53.69;95152.66;108709;1271;22595;-81
2023/11/02 11:49:48;;;;;;;1.90;0.70;;;;;;;15.92;53.53;95161.42;108788;1271;24212;-81
2023/11/02 11:52:28;;;;;;;2.00;0.60;;;;;;;15.80;54.18;95151.54;108821;1263;22524;-80
2023/11/02 11:55:21;;;;;;;2.40;0.60;;;;;;;15.69;53.65;95149.83;108839;1271;22551;-81
2023/11/02 11:57:59;;;;;;;0.60;0.50;;;;;;;15.56;53.62;95147.04;108771;1271;22611;-80
2023/11/02 12:00:31;;;;;;;2.10;0.70;;;;;;;15.49;54.16;95141.77;108762;1271;22540;-81
2023/11/02 12:03:05;;;;;;;1.10;0.80;;;;;;;15.48;54.36;95140.80;108732;1269;22530;-80
2023/11/02 12:05:58;;;;;;;3.80;0.80;;;;;;;15.46;54.58;95143.66;108681;1271;32057;-80